sensor_id;sensor_type;location;lat;lon;timestamp;P1;durP1;ratioP1;P2;durP2;ratioP2
23175;SDS011;19910;42.652;23.332;2023-04-24T00:00:58;7.63;;;5.40;;
23175;SDS011;19910;42.652;23.332;2023-04-24T00:03:26;8.85;;;5.15;;
23175;SDS011;19910;42.652;23.332;2023-04-24T00:05:54;10.43;;;5.28;;
23175;SDS011;19910;42.652;23.332;2023-04-24T00:08:22;8.90;;;5.20;;
23175;SDS011;19910;42.652;23.332;2023-04-24T00:10:49;7.65;;;4.38;;
23175;SDS011;19910;42.652;23.332;2023-04-24T00:13:17;10.73;;;4.75;;
23175;SDS011;19910;42.652;23.332;2023-04-24T00:15:44;9.70;;;4.40;;
23175;SDS011;19910;42.652;23.332;2023-04-24T00:18:11;9.00;;;5.18;;
23175;SDS011;19910;42.652;23.332;2023-04-24T00:20:38;9.85;;;5.70;;
23175;SDS011;19910;42.652;23.332;2023-04-24T00:23:05;8.95;;;5.28;;
23175;SDS011;19910;42.652;23.332;2023-04-24T00:25:33;7.72;;;5.30;;
23175;SDS011;19910;42.652;23.332;2023-04-24T00:28:00;13.55;;;5.95;;
23175;SDS011;19910;42.652;23.332;2023-04-24T00:30:27;10.57;;;6.25;;
23175;SDS011;19910;42.652;23.332;2023-04-24T00:32:54;9.48;;;5.75;;
23175;SDS011;19910;42.652;23.332;2023-04-24T00:35:21;7.65;;;4.97;;
23175;SDS011;19910;42.652;23.332;2023-04-24T00:37:48;9.23;;;5.38;;
23175;SDS011;19910;42.652;23.332;2023-04-24T00:40:15;10.27;;;5.97;;
23175;SDS011;19910;42.652;23.332;2023-04-24T00:42:43;9.55;;;5.72;;
23175;SDS011;19910;42.652;23.332;2023-04-24T00:45:10;10.10;;;5.53;;
23175;SDS011;19910;42.652;23.332;2023-04-24T00:47:38;8.48;;;5.25;;
23175;SDS011;19910;42.652;23.332;2023-04-24T00:50:06;14.77;;;6.35;;
23175;SDS011;19910;42.652;23.332;2023-04-24T00:52:33;11.15;;;6.18;;
23175;SDS011;19910;42.652;23.332;2023-04-24T00:55:01;10.30;;;4.85;;
23175;SDS011;19910;42.652;23.332;2023-04-24T00:57:28;7.63;;;5.20;;
23175;SDS011;19910;42.652;23.332;2023-04-24T00:59:56;14.68;;;4.90;;
23175;SDS011;19910;42.652;23.332;2023-04-24T01:02:23;9.75;;;5.82;;
23175;SDS011;19910;42.652;23.332;2023-04-24T01:04:51;10.25;;;5.60;;
23175;SDS011;19910;42.652;23.332;2023-04-24T01:07:18;12.50;;;6.00;;
23175;SDS011;19910;42.652;23.332;2023-04-24T01:09:46;16.98;;;8.45;;
23175;SDS011;19910;42.652;23.332;2023-04-24T01:12:16;12.63;;;6.03;;
23175;SDS011;19910;42.652;23.332;2023-04-24T01:14:43;9.18;;;5.82;;
23175;SDS011;19910;42.652;23.332;2023-04-24T01:17:12;12.85;;;6.60;;
23175;SDS011;19910;42.652;23.332;2023-04-24T01:19:39;10.20;;;6.53;;
23175;SDS011;19910;42.652;23.332;2023-04-24T01:22:11;11.45;;;5.05;;
23175;SDS011;19910;42.652;23.332;2023-04-24T01:24:39;8.48;;;4.97;;
23175;SDS011;19910;42.652;23.332;2023-04-24T01:27:06;12.65;;;5.40;;
23175;SDS011;19910;42.652;23.332;2023-04-24T01:29:34;6.72;;;4.75;;
23175;SDS011;19910;42.652;23.332;2023-04-24T01:32:02;7.95;;;4.35;;
23175;SDS011;19910;42.652;23.332;2023-04-24T01:34:29;7.10;;;4.53;;
23175;SDS011;19910;42.652;23.332;2023-04-24T01:36:56;9.00;;;4.13;;
23175;SDS011;19910;42.652;23.332;2023-04-24T01:39:25;9.35;;;4.47;;
23175;SDS011;19910;42.652;23.332;2023-04-24T01:41:53;10.15;;;4.90;;
23175;SDS011;19910;42.652;23.332;2023-04-24T01:44:21;6.35;;;4.55;;
23175;SDS011;19910;42.652;23.332;2023-04-24T01:46:48;10.85;;;4.85;;
23175;SDS011;19910;42.652;23.332;2023-04-24T01:49:15;6.63;;;4.22;;
23175;SDS011;19910;42.652;23.332;2023-04-24T01:51:42;8.07;;;5.03;;
23175;SDS011;19910;42.652;23.332;2023-04-24T01:54:09;9.65;;;4.90;;
23175;SDS011;19910;42.652;23.332;2023-04-24T01:56:37;9.73;;;5.35;;
23175;SDS011;19910;42.652;23.332;2023-04-24T01:59:07;8.40;;;4.85;;
23175;SDS011;19910;42.652;23.332;2023-04-24T02:01:36;12.55;;;6.60;;
23175;SDS011;19910;42.652;23.332;2023-04-24T02:04:03;10.80;;;6.70;;
23175;SDS011;19910;42.652;23.332;2023-04-24T02:06:30;10.43;;;5.38;;
23175;SDS011;19910;42.652;23.332;2023-04-24T02:08:57;8.88;;;4.88;;
23175;SDS011;19910;42.652;23.332;2023-04-24T02:11:24;9.55;;;4.80;;
23175;SDS011;19910;42.652;23.332;2023-04-24T02:13:52;6.97;;;4.13;;
23175;SDS011;19910;42.652;23.332;2023-04-24T02:16:20;5.03;;;3.92;;
23175;SDS011;19910;42.652;23.332;2023-04-24T02:18:47;10.90;;;5.18;;
23175;SDS011;19910;42.652;23.332;2023-04-24T02:21:14;7.13;;;3.90;;
23175;SDS011;19910;42.652;23.332;2023-04-24T02:23:41;9.23;;;4.25;;
23175;SDS011;19910;42.652;23.332;2023-04-24T02:26:08;7.78;;;4.65;;
23175;SDS011;19910;42.652;23.332;2023-04-24T02:28:35;6.35;;;4.50;;
23175;SDS011;19910;42.652;23.332;2023-04-24T02:31:03;8.75;;;5.00;;
23175;SDS011;19910;42.652;23.332;2023-04-24T02:33:31;7.00;;;4.80;;
23175;SDS011;19910;42.652;23.332;2023-04-24T02:35:58;14.30;;;5.40;;
23175;SDS011;19910;42.652;23.332;2023-04-24T02:38:24;11.25;;;5.82;;
23175;SDS011;19910;42.652;23.332;2023-04-24T02:40:51;7.57;;;5.25;;
23175;SDS011;19910;42.652;23.332;2023-04-24T02:43:18;10.65;;;6.28;;
23175;SDS011;19910;42.652;23.332;2023-04-24T02:45:45;10.05;;;5.43;;
23175;SDS011;19910;42.652;23.332;2023-04-24T02:48:13;12.15;;;5.82;;
23175;SDS011;19910;42.652;23.332;2023-04-24T02:50:40;11.80;;;6.15;;
23175;SDS011;19910;42.652;23.332;2023-04-24T02:53:07;8.93;;;5.00;;
23175;SDS011;19910;42.652;23.332;2023-04-24T02:55:34;9.23;;;5.68;;
23175;SDS011;19910;42.652;23.332;2023-04-24T02:58:01;9.38;;;5.18;;
23175;SDS011;19910;42.652;23.332;2023-04-24T03:00:27;11.40;;;5.32;;
23175;SDS011;19910;42.652;23.332;2023-04-24T03:02:55;9.95;;;5.88;;
23175;SDS011;19910;42.652;23.332;2023-04-24T03:05:23;9.20;;;5.43;;
23175;SDS011;19910;42.652;23.332;2023-04-24T03:07:50;11.75;;;5.82;;
23175;SDS011;19910;42.652;23.332;2023-04-24T03:10:17;9.73;;;6.10;;
23175;SDS011;19910;42.652;23.332;2023-04-24T03:12:44;12.55;;;6.28;;
23175;SDS011;19910;42.652;23.332;2023-04-24T03:15:11;13.25;;;6.28;;
23175;SDS011;19910;42.652;23.332;2023-04-24T03:17:38;9.85;;;5.28;;
23175;SDS011;19910;42.652;23.332;2023-04-24T03:20:05;10.75;;;6.40;;
23175;SDS011;19910;42.652;23.332;2023-04-24T03:22:34;12.80;;;5.93;;
23175;SDS011;19910;42.652;23.332;2023-04-24T03:25:01;10.30;;;6.40;;
23175;SDS011;19910;42.652;23.332;2023-04-24T03:27:28;11.98;;;6.50;;
23175;SDS011;19910;42.652;23.332;2023-04-24T03:29:55;11.65;;;6.43;;
23175;SDS011;19910;42.652;23.332;2023-04-24T03:32:22;15.18;;;8.52;;
23175;SDS011;19910;42.652;23.332;2023-04-24T03:34:49;11.57;;;6.20;;
23175;SDS011;19910;42.652;23.332;2023-04-24T03:37:16;9.95;;;5.95;;
23175;SDS011;19910;42.652;23.332;2023-04-24T03:39:45;9.05;;;5.90;;
23175;SDS011;19910;42.652;23.332;2023-04-24T03:42:11;8.25;;;4.93;;
23175;SDS011;19910;42.652;23.332;2023-04-24T03:44:38;10.20;;;6.10;;
23175;SDS011;19910;42.652;23.332;2023-04-24T03:47:05;10.48;;;5.93;;
23175;SDS011;19910;42.652;23.332;2023-04-24T03:49:32;11.30;;;5.97;;
23175;SDS011;19910;42.652;23.332;2023-04-24T03:51:59;10.45;;;6.50;;
23175;SDS011;19910;42.652;23.332;2023-04-24T03:54:26;10.57;;;6.40;;
23175;SDS011;19910;42.652;23.332;2023-04-24T03:56:54;8.38;;;6.03;;
23175;SDS011;19910;42.652;23.332;2023-04-24T03:59:21;10.35;;;6.10;;
23175;SDS011;19910;42.652;23.332;2023-04-24T04:01:47;9.63;;;5.43;;
23175;SDS011;19910;42.652;23.332;2023-04-24T04:04:14;10.15;;;5.75;;
23175;SDS011;19910;42.652;23.332;2023-04-24T04:06:41;9.23;;;5.75;;
23175;SDS011;19910;42.652;23.332;2023-04-24T04:09:09;8.27;;;5.60;;
23175;SDS011;19910;42.652;23.332;2023-04-24T04:11:36;10.13;;;5.57;;
23175;SDS011;19910;42.652;23.332;2023-04-24T04:14:04;13.82;;;8.13;;
23175;SDS011;19910;42.652;23.332;2023-04-24T04:16:31;9.13;;;5.70;;
23175;SDS011;19910;42.652;23.332;2023-04-24T04:18:58;8.07;;;5.82;;
23175;SDS011;19910;42.652;23.332;2023-04-24T04:21:25;7.90;;;5.10;;
23175;SDS011;19910;42.652;23.332;2023-04-24T04:23:53;12.18;;;7.47;;
23175;SDS011;19910;42.652;23.332;2023-04-24T04:26:19;16.92;;;7.80;;
23175;SDS011;19910;42.652;23.332;2023-04-24T04:28:50;13.63;;;6.28;;
23175;SDS011;19910;42.652;23.332;2023-04-24T04:31:18;13.27;;;8.05;;
23175;SDS011;19910;42.652;23.332;2023-04-24T04:33:46;15.20;;;6.00;;
23175;SDS011;19910;42.652;23.332;2023-04-24T04:36:13;9.40;;;5.90;;
23175;SDS011;19910;42.652;23.332;2023-04-24T04:38:42;10.93;;;5.93;;
23175;SDS011;19910;42.652;23.332;2023-04-24T04:41:09;10.63;;;5.95;;
23175;SDS011;19910;42.652;23.332;2023-04-24T04:43:37;9.95;;;5.78;;
23175;SDS011;19910;42.652;23.332;2023-04-24T04:46:05;8.05;;;4.85;;
23175;SDS011;19910;42.652;23.332;2023-04-24T04:48:35;8.68;;;4.88;;
23175;SDS011;19910;42.652;23.332;2023-04-24T04:51:01;8.00;;;5.45;;
23175;SDS011;19910;42.652;23.332;2023-04-24T04:53:30;12.55;;;5.32;;
23175;SDS011;19910;42.652;23.332;2023-04-24T04:55:57;11.43;;;5.72;;
23175;SDS011;19910;42.652;23.332;2023-04-24T04:58:24;13.45;;;5.30;;
23175;SDS011;19910;42.652;23.332;2023-04-24T05:00:51;13.60;;;5.38;;
23175;SDS011;19910;42.652;23.332;2023-04-24T05:03:18;11.50;;;5.25;;
23175;SDS011;19910;42.652;23.332;2023-04-24T05:05:46;16.27;;;5.45;;
23175;SDS011;19910;42.652;23.332;2023-04-24T05:08:13;15.20;;;5.80;;
23175;SDS011;19910;42.652;23.332;2023-04-24T05:10:40;6.75;;;3.83;;
23175;SDS011;19910;42.652;23.332;2023-04-24T05:13:07;7.05;;;4.43;;
23175;SDS011;19910;42.652;23.332;2023-04-24T05:15:34;8.82;;;4.28;;
23175;SDS011;19910;42.652;23.332;2023-04-24T05:18:01;6.25;;;3.47;;
23175;SDS011;19910;42.652;23.332;2023-04-24T05:20:33;10.10;;;3.58;;
23175;SDS011;19910;42.652;23.332;2023-04-24T05:23:01;7.13;;;3.25;;
23175;SDS011;19910;42.652;23.332;2023-04-24T05:25:28;7.13;;;3.40;;
23175;SDS011;19910;42.652;23.332;2023-04-24T05:27:57;6.47;;;4.38;;
23175;SDS011;19910;42.652;23.332;2023-04-24T05:30:24;9.93;;;3.50;;
23175;SDS011;19910;42.652;23.332;2023-04-24T05:32:51;8.70;;;4.70;;
23175;SDS011;19910;42.652;23.332;2023-04-24T05:35:17;13.43;;;3.53;;
23175;SDS011;19910;42.652;23.332;2023-04-24T05:37:44;7.57;;;3.53;;
23175;SDS011;19910;42.652;23.332;2023-04-24T05:40:13;7.18;;;3.72;;
23175;SDS011;19910;42.652;23.332;2023-04-24T05:42:39;6.63;;;5.22;;
23175;SDS011;19910;42.652;23.332;2023-04-24T05:45:07;10.98;;;5.03;;
23175;SDS011;19910;42.652;23.332;2023-04-24T05:47:34;8.07;;;3.17;;
23175;SDS011;19910;42.652;23.332;2023-04-24T05:50:01;10.40;;;5.10;;
23175;SDS011;19910;42.652;23.332;2023-04-24T05:52:28;11.07;;;4.30;;
23175;SDS011;19910;42.652;23.332;2023-04-24T05:54:55;7.20;;;3.42;;
23175;SDS011;19910;42.652;23.332;2023-04-24T05:57:24;8.25;;;3.65;;
23175;SDS011;19910;42.652;23.332;2023-04-24T05:59:51;6.28;;;4.07;;
23175;SDS011;19910;42.652;23.332;2023-04-24T06:02:17;7.32;;;4.93;;
23175;SDS011;19910;42.652;23.332;2023-04-24T06:04:45;8.13;;;5.22;;
23175;SDS011;19910;42.652;23.332;2023-04-24T06:07:11;9.85;;;5.75;;
23175;SDS011;19910;42.652;23.332;2023-04-24T06:09:38;9.55;;;5.70;;
23175;SDS011;19910;42.652;23.332;2023-04-24T06:12:05;7.97;;;3.97;;
23175;SDS011;19910;42.652;23.332;2023-04-24T06:14:34;4.63;;;3.97;;
23175;SDS011;19910;42.652;23.332;2023-04-24T06:17:01;9.18;;;5.07;;
23175;SDS011;19910;42.652;23.332;2023-04-24T06:19:28;8.40;;;4.10;;
23175;SDS011;19910;42.652;23.332;2023-04-24T06:21:55;7.00;;;4.78;;
23175;SDS011;19910;42.652;23.332;2023-04-24T06:24:21;6.78;;;4.60;;
23175;SDS011;19910;42.652;23.332;2023-04-24T06:26:48;8.52;;;5.20;;
23175;SDS011;19910;42.652;23.332;2023-04-24T06:29:16;5.43;;;4.55;;
23175;SDS011;19910;42.652;23.332;2023-04-24T06:31:44;11.70;;;5.47;;
23175;SDS011;19910;42.652;23.332;2023-04-24T06:34:10;9.35;;;4.95;;
23175;SDS011;19910;42.652;23.332;2023-04-24T06:36:37;7.65;;;4.78;;
23175;SDS011;19910;42.652;23.332;2023-04-24T06:39:04;12.05;;;5.82;;
23175;SDS011;19910;42.652;23.332;2023-04-24T06:41:31;14.82;;;5.22;;
23175;SDS011;19910;42.652;23.332;2023-04-24T06:43:58;8.23;;;5.60;;
23175;SDS011;19910;42.652;23.332;2023-04-24T06:46:25;10.88;;;5.78;;
23175;SDS011;19910;42.652;23.332;2023-04-24T06:48:54;10.23;;;5.97;;
23175;SDS011;19910;42.652;23.332;2023-04-24T06:51:22;11.73;;;6.47;;
23175;SDS011;19910;42.652;23.332;2023-04-24T06:53:49;11.45;;;7.22;;
23175;SDS011;19910;42.652;23.332;2023-04-24T06:56:17;10.25;;;7.00;;
23175;SDS011;19910;42.652;23.332;2023-04-24T06:58:44;14.05;;;7.07;;
23175;SDS011;19910;42.652;23.332;2023-04-24T07:01:11;13.60;;;6.82;;
23175;SDS011;19910;42.652;23.332;2023-04-24T07:03:38;12.98;;;6.95;;
23175;SDS011;19910;42.652;23.332;2023-04-24T07:06:06;11.23;;;7.15;;
23175;SDS011;19910;42.652;23.332;2023-04-24T07:08:33;8.20;;;6.47;;
23175;SDS011;19910;42.652;23.332;2023-04-24T07:11:01;13.48;;;6.80;;
23175;SDS011;19910;42.652;23.332;2023-04-24T07:13:28;10.20;;;7.28;;
23175;SDS011;19910;42.652;23.332;2023-04-24T07:15:55;11.38;;;7.07;;
23175;SDS011;19910;42.652;23.332;2023-04-24T07:18:21;12.70;;;6.90;;
23175;SDS011;19910;42.652;23.332;2023-04-24T07:20:49;8.70;;;6.18;;
23175;SDS011;19910;42.652;23.332;2023-04-24T07:23:17;10.60;;;5.35;;
23175;SDS011;19910;42.652;23.332;2023-04-24T07:25:44;9.90;;;6.38;;
23175;SDS011;19910;42.652;23.332;2023-04-24T07:28:11;10.90;;;6.57;;
23175;SDS011;19910;42.652;23.332;2023-04-24T07:30:38;10.88;;;6.80;;
23175;SDS011;19910;42.652;23.332;2023-04-24T07:33:05;12.43;;;6.90;;
23175;SDS011;19910;42.652;23.332;2023-04-24T07:35:32;10.25;;;7.20;;
23175;SDS011;19910;42.652;23.332;2023-04-24T07:37:59;9.85;;;5.55;;
23175;SDS011;19910;42.652;23.332;2023-04-24T07:40:27;9.23;;;5.57;;
23175;SDS011;19910;42.652;23.332;2023-04-24T07:42:54;9.18;;;4.75;;
23175;SDS011;19910;42.652;23.332;2023-04-24T07:45:21;6.78;;;4.60;;
23175;SDS011;19910;42.652;23.332;2023-04-24T07:47:48;6.97;;;4.30;;
23175;SDS011;19910;42.652;23.332;2023-04-24T07:50:17;7.28;;;4.53;;
23175;SDS011;19910;42.652;23.332;2023-04-24T07:52:43;7.90;;;5.95;;
23175;SDS011;19910;42.652;23.332;2023-04-24T07:55:10;9.05;;;5.80;;
23175;SDS011;19910;42.652;23.332;2023-04-24T07:57:38;9.48;;;6.22;;
23175;SDS011;19910;42.652;23.332;2023-04-24T08:00:05;8.40;;;5.47;;
23175;SDS011;19910;42.652;23.332;2023-04-24T08:02:33;11.05;;;6.43;;
23175;SDS011;19910;42.652;23.332;2023-04-24T08:05:00;10.27;;;5.97;;
23175;SDS011;19910;42.652;23.332;2023-04-24T08:07:28;7.97;;;5.68;;
23175;SDS011;19910;42.652;23.332;2023-04-24T08:09:55;9.32;;;5.90;;
23175;SDS011;19910;42.652;23.332;2023-04-24T08:12:22;8.93;;;5.65;;
23175;SDS011;19910;42.652;23.332;2023-04-24T08:14:50;9.30;;;5.75;;
23175;SDS011;19910;42.652;23.332;2023-04-24T08:17:17;10.10;;;6.75;;
23175;SDS011;19910;42.652;23.332;2023-04-24T08:19:44;9.00;;;5.78;;
23175;SDS011;19910;42.652;23.332;2023-04-24T08:22:13;10.68;;;6.40;;
23175;SDS011;19910;42.652;23.332;2023-04-24T08:24:40;8.20;;;6.28;;
23175;SDS011;19910;42.652;23.332;2023-04-24T08:27:07;9.27;;;6.57;;
23175;SDS011;19910;42.652;23.332;2023-04-24T08:29:34;7.78;;;6.30;;
23175;SDS011;19910;42.652;23.332;2023-04-24T08:32:02;8.18;;;5.95;;
23175;SDS011;19910;42.652;23.332;2023-04-24T08:34:29;8.40;;;6.00;;
23175;SDS011;19910;42.652;23.332;2023-04-24T08:36:56;9.98;;;5.80;;
23175;SDS011;19910;42.652;23.332;2023-04-24T08:39:26;9.65;;;6.72;;
23175;SDS011;19910;42.652;23.332;2023-04-24T08:41:53;11.80;;;5.65;;
23175;SDS011;19910;42.652;23.332;2023-04-24T08:44:22;11.88;;;6.15;;
23175;SDS011;19910;42.652;23.332;2023-04-24T08:46:49;8.73;;;6.38;;
23175;SDS011;19910;42.652;23.332;2023-04-24T08:49:17;8.60;;;6.35;;
23175;SDS011;19910;42.652;23.332;2023-04-24T08:51:45;9.80;;;6.28;;
23175;SDS011;19910;42.652;23.332;2023-04-24T08:54:13;9.55;;;6.45;;
23175;SDS011;19910;42.652;23.332;2023-04-24T08:56:40;9.48;;;6.38;;
23175;SDS011;19910;42.652;23.332;2023-04-24T08:59:09;12.05;;;6.20;;
23175;SDS011;19910;42.652;23.332;2023-04-24T09:01:37;11.73;;;6.00;;
23175;SDS011;19910;42.652;23.332;2023-04-24T09:04:04;9.05;;;5.30;;
23175;SDS011;19910;42.652;23.332;2023-04-24T09:06:35;7.28;;;5.38;;
23175;SDS011;19910;42.652;23.332;2023-04-24T09:09:02;10.75;;;5.68;;
23175;SDS011;19910;42.652;23.332;2023-04-24T09:11:29;9.77;;;6.00;;
23175;SDS011;19910;42.652;23.332;2023-04-24T09:13:57;11.98;;;5.75;;
23175;SDS011;19910;42.652;23.332;2023-04-24T09:16:24;9.38;;;5.93;;
23175;SDS011;19910;42.652;23.332;2023-04-24T09:18:52;9.93;;;5.65;;
23175;SDS011;19910;42.652;23.332;2023-04-24T09:21:20;7.53;;;5.28;;
23175;SDS011;19910;42.652;23.332;2023-04-24T09:23:58;7.43;;;5.22;;
23175;SDS011;19910;42.652;23.332;2023-04-24T09:26:26;7.25;;;5.22;;
23175;SDS011;19910;42.652;23.332;2023-04-24T09:28:56;8.73;;;4.88;;
23175;SDS011;19910;42.652;23.332;2023-04-24T09:31:24;8.10;;;5.10;;
23175;SDS011;19910;42.652;23.332;2023-04-24T09:33:54;9.57;;;5.40;;
23175;SDS011;19910;42.652;23.332;2023-04-24T09:36:26;9.32;;;5.13;;
23175;SDS011;19910;42.652;23.332;2023-04-24T09:38:58;6.20;;;4.90;;
23175;SDS011;19910;42.652;23.332;2023-04-24T09:41:26;7.45;;;5.13;;
23175;SDS011;19910;42.652;23.332;2023-04-24T09:43:54;9.52;;;5.45;;
23175;SDS011;19910;42.652;23.332;2023-04-24T09:46:21;8.35;;;4.95;;
23175;SDS011;19910;42.652;23.332;2023-04-24T09:48:55;13.20;;;5.20;;
23175;SDS011;19910;42.652;23.332;2023-04-24T09:51:32;7.88;;;4.85;;
23175;SDS011;19910;42.652;23.332;2023-04-24T09:54:03;9.15;;;5.05;;
23175;SDS011;19910;42.652;23.332;2023-04-24T09:56:32;6.63;;;4.47;;
23175;SDS011;19910;42.652;23.332;2023-04-24T09:59:04;6.00;;;4.38;;
23175;SDS011;19910;42.652;23.332;2023-04-24T10:01:31;6.32;;;4.93;;
23175;SDS011;19910;42.652;23.332;2023-04-24T10:03:59;12.02;;;4.38;;
23175;SDS011;19910;42.652;23.332;2023-04-24T10:06:29;6.82;;;4.78;;
23175;SDS011;19910;42.652;23.332;2023-04-24T10:08:57;6.13;;;4.50;;
23175;SDS011;19910;42.652;23.332;2023-04-24T10:11:26;9.48;;;4.97;;
23175;SDS011;19910;42.652;23.332;2023-04-24T10:13:54;6.18;;;4.63;;
23175;SDS011;19910;42.652;23.332;2023-04-24T10:16:22;6.53;;;4.55;;
23175;SDS011;19910;42.652;23.332;2023-04-24T10:18:49;6.68;;;4.40;;
23175;SDS011;19910;42.652;23.332;2023-04-24T10:21:17;7.97;;;4.78;;
23175;SDS011;19910;42.652;23.332;2023-04-24T10:23:44;4.88;;;4.30;;
23175;SDS011;19910;42.652;23.332;2023-04-24T10:26:12;9.45;;;4.50;;
23175;SDS011;19910;42.652;23.332;2023-04-24T10:28:44;7.95;;;4.72;;
23175;SDS011;19910;42.652;23.332;2023-04-24T10:31:11;6.57;;;4.78;;
23175;SDS011;19910;42.652;23.332;2023-04-24T10:33:39;7.05;;;4.47;;
23175;SDS011;19910;42.652;23.332;2023-04-24T10:36:07;5.32;;;4.18;;
23175;SDS011;19910;42.652;23.332;2023-04-24T10:38:36;7.03;;;4.28;;
23175;SDS011;19910;42.652;23.332;2023-04-24T10:41:08;7.05;;;4.50;;
23175;SDS011;19910;42.652;23.332;2023-04-24T10:43:41;9.15;;;4.28;;
23175;SDS011;19910;42.652;23.332;2023-04-24T10:46:10;6.03;;;4.38;;
23175;SDS011;19910;42.652;23.332;2023-04-24T10:48:42;7.13;;;4.18;;
23175;SDS011;19910;42.652;23.332;2023-04-24T10:51:12;7.30;;;4.03;;
23175;SDS011;19910;42.652;23.332;2023-04-24T10:53:40;6.88;;;4.25;;
23175;SDS011;19910;42.652;23.332;2023-04-24T10:56:07;4.55;;;4.03;;
23175;SDS011;19910;42.652;23.332;2023-04-24T10:58:36;7.50;;;4.00;;
23175;SDS011;19910;42.652;23.332;2023-04-24T11:01:05;7.43;;;3.90;;
23175;SDS011;19910;42.652;23.332;2023-04-24T11:03:34;6.20;;;3.75;;
23175;SDS011;19910;42.652;23.332;2023-04-24T11:06:03;6.68;;;3.72;;
23175;SDS011;19910;42.652;23.332;2023-04-24T11:08:31;8.32;;;3.83;;
23175;SDS011;19910;42.652;23.332;2023-04-24T11:11:03;4.82;;;3.45;;
23175;SDS011;19910;42.652;23.332;2023-04-24T11:16:32;7.32;;;3.78;;
23175;SDS011;19910;42.652;23.332;2023-04-24T11:19:02;8.80;;;4.05;;
23175;SDS011;19910;42.652;23.332;2023-04-24T11:21:31;7.90;;;3.47;;
23175;SDS011;19910;42.652;23.332;2023-04-24T11:23:58;7.05;;;4.45;;
23175;SDS011;19910;42.652;23.332;2023-04-24T11:26:53;8.30;;;4.50;;
23175;SDS011;19910;42.652;23.332;2023-04-24T11:29:21;5.53;;;3.55;;
23175;SDS011;19910;42.652;23.332;2023-04-24T11:31:49;7.93;;;3.60;;
23175;SDS011;19910;42.652;23.332;2023-04-24T11:34:18;9.18;;;3.03;;
23175;SDS011;19910;42.652;23.332;2023-04-24T11:36:45;6.93;;;2.80;;
23175;SDS011;19910;42.652;23.332;2023-04-24T11:39:14;4.15;;;2.40;;
23175;SDS011;19910;42.652;23.332;2023-04-24T11:41:41;4.80;;;3.15;;
23175;SDS011;19910;42.652;23.332;2023-04-24T11:44:08;9.60;;;3.35;;
23175;SDS011;19910;42.652;23.332;2023-04-24T11:46:36;3.20;;;2.90;;
23175;SDS011;19910;42.652;23.332;2023-04-24T11:49:05;5.18;;;3.53;;
23175;SDS011;19910;42.652;23.332;2023-04-24T11:51:33;4.93;;;4.43;;
23175;SDS011;19910;42.652;23.332;2023-04-24T11:54:01;5.57;;;4.38;;
23175;SDS011;19910;42.652;23.332;2023-04-24T11:56:28;7.05;;;4.90;;
23175;SDS011;19910;42.652;23.332;2023-04-24T11:58:54;8.43;;;5.13;;
23175;SDS011;19910;42.652;23.332;2023-04-24T12:01:21;5.93;;;4.30;;
23175;SDS011;19910;42.652;23.332;2023-04-24T12:03:48;5.38;;;4.38;;
23175;SDS011;19910;42.652;23.332;2023-04-24T12:06:16;5.75;;;4.95;;
23175;SDS011;19910;42.652;23.332;2023-04-24T12:08:47;6.03;;;4.13;;
23175;SDS011;19910;42.652;23.332;2023-04-24T12:11:15;8.10;;;3.58;;
23175;SDS011;19910;42.652;23.332;2023-04-24T12:13:44;4.57;;;3.53;;
23175;SDS011;19910;42.652;23.332;2023-04-24T12:16:11;7.22;;;3.75;;
23175;SDS011;19910;42.652;23.332;2023-04-24T12:18:42;4.45;;;3.60;;
23175;SDS011;19910;42.652;23.332;2023-04-24T12:21:17;4.07;;;3.60;;
23175;SDS011;19910;42.652;23.332;2023-04-24T12:23:46;4.50;;;3.55;;
23175;SDS011;19910;42.652;23.332;2023-04-24T12:26:16;5.03;;;3.20;;
23175;SDS011;19910;42.652;23.332;2023-04-24T12:28:45;4.95;;;3.45;;
23175;SDS011;19910;42.652;23.332;2023-04-24T12:31:13;3.70;;;3.38;;
23175;SDS011;19910;42.652;23.332;2023-04-24T12:33:40;5.45;;;3.25;;
23175;SDS011;19910;42.652;23.332;2023-04-24T12:36:09;4.10;;;3.30;;
23175;SDS011;19910;42.652;23.332;2023-04-24T12:38:37;4.57;;;3.15;;
23175;SDS011;19910;42.652;23.332;2023-04-24T12:41:08;6.47;;;3.25;;
23175;SDS011;19910;42.652;23.332;2023-04-24T12:43:36;3.67;;;3.30;;
23175;SDS011;19910;42.652;23.332;2023-04-24T12:46:03;6.15;;;4.10;;
23175;SDS011;19910;42.652;23.332;2023-04-24T12:48:31;5.65;;;4.05;;
23175;SDS011;19910;42.652;23.332;2023-04-24T12:50:57;8.90;;;4.25;;
23175;SDS011;19910;42.652;23.332;2023-04-24T12:53:26;5.90;;;3.83;;
23175;SDS011;19910;42.652;23.332;2023-04-24T12:55:55;7.50;;;3.85;;
23175;SDS011;19910;42.652;23.332;2023-04-24T12:58:23;4.72;;;3.15;;
23175;SDS011;19910;42.652;23.332;2023-04-24T13:00:50;5.80;;;3.80;;
23175;SDS011;19910;42.652;23.332;2023-04-24T13:03:17;5.05;;;3.67;;
23175;SDS011;19910;42.652;23.332;2023-04-24T13:05:44;5.78;;;3.30;;
23175;SDS011;19910;42.652;23.332;2023-04-24T13:08:11;4.85;;;3.72;;
23175;SDS011;19910;42.652;23.332;2023-04-24T13:10:39;8.50;;;3.97;;
23175;SDS011;19910;42.652;23.332;2023-04-24T13:13:06;6.65;;;3.83;;
23175;SDS011;19910;42.652;23.332;2023-04-24T13:15:35;5.43;;;3.95;;
23175;SDS011;19910;42.652;23.332;2023-04-24T13:18:02;4.68;;;3.90;;
23175;SDS011;19910;42.652;23.332;2023-04-24T13:20:29;5.40;;;4.00;;
23175;SDS011;19910;42.652;23.332;2023-04-24T13:22:56;3.90;;;3.50;;
23175;SDS011;19910;42.652;23.332;2023-04-24T13:25:23;4.10;;;3.70;;
23175;SDS011;19910;42.652;23.332;2023-04-24T13:27:51;4.40;;;3.83;;
23175;SDS011;19910;42.652;23.332;2023-04-24T13:30:18;6.72;;;4.10;;
23175;SDS011;19910;42.652;23.332;2023-04-24T13:32:46;5.57;;;4.13;;
23175;SDS011;19910;42.652;23.332;2023-04-24T13:35:16;6.15;;;4.60;;
23175;SDS011;19910;42.652;23.332;2023-04-24T13:38:00;7.93;;;3.92;;
23175;SDS011;19910;42.652;23.332;2023-04-24T13:40:30;7.90;;;4.13;;
23175;SDS011;19910;42.652;23.332;2023-04-24T13:42:57;6.78;;;3.55;;
23175;SDS011;19910;42.652;23.332;2023-04-24T13:45:24;5.35;;;3.85;;
23175;SDS011;19910;42.652;23.332;2023-04-24T13:47:53;6.25;;;4.07;;
23175;SDS011;19910;42.652;23.332;2023-04-24T13:50:20;12.77;;;4.07;;
23175;SDS011;19910;42.652;23.332;2023-04-24T13:52:47;8.55;;;4.07;;
23175;SDS011;19910;42.652;23.332;2023-04-24T13:55:13;5.07;;;3.80;;
23175;SDS011;19910;42.652;23.332;2023-04-24T13:57:40;5.35;;;3.65;;
23175;SDS011;19910;42.652;23.332;2023-04-24T14:00:07;5.88;;;3.92;;
23175;SDS011;19910;42.652;23.332;2023-04-24T14:02:36;4.65;;;3.60;;
23175;SDS011;19910;42.652;23.332;2023-04-24T14:05:04;4.45;;;3.50;;
23175;SDS011;19910;42.652;23.332;2023-04-24T14:07:32;5.63;;;3.90;;
23175;SDS011;19910;42.652;23.332;2023-04-24T14:09:58;7.70;;;4.05;;
23175;SDS011;19910;42.652;23.332;2023-04-24T14:12:25;5.63;;;3.90;;
23175;SDS011;19910;42.652;23.332;2023-04-24T14:14:52;7.28;;;3.60;;
23175;SDS011;19910;42.652;23.332;2023-04-24T14:17:19;6.32;;;4.35;;
23175;SDS011;19910;42.652;23.332;2023-04-24T14:19:46;4.60;;;3.97;;
23175;SDS011;19910;42.652;23.332;2023-04-24T14:22:14;6.30;;;3.70;;
23175;SDS011;19910;42.652;23.332;2023-04-24T14:24:41;7.45;;;4.22;;
23175;SDS011;19910;42.652;23.332;2023-04-24T14:27:10;6.82;;;3.40;;
23175;SDS011;19910;42.652;23.332;2023-04-24T14:29:37;5.63;;;4.45;;
23175;SDS011;19910;42.652;23.332;2023-04-24T14:32:04;12.68;;;4.43;;
23175;SDS011;19910;42.652;23.332;2023-04-24T14:34:31;4.80;;;3.05;;
23175;SDS011;19910;42.652;23.332;2023-04-24T14:36:58;9.77;;;3.75;;